Time;durP1;ratioP1;P1;durP2;ratioP2;P2;SDS_P1;SDS_P2;PMS_P1;PMS_P2;Temp;Humidity;BMP_temperature;BMP_pressure;BME280_temperature;BME280_humidity;BME280_pressure;Samples;Min_cycle;Max_cycle;Signal;HPM_P1;HPM_P2
2022/03/01 00:01:12;;;;;;;16.48;9.18;;;;;;;12.59;38.48;102674.03;4919962;29;20031;-80
2022/03/01 00:03:38;;;;;;;11.38;8.60;;;;;;;12.58;38.64;102682.53;4937023;29;20427;-80
2022/03/01 00:06:04;;;;;;;18.10;9.95;;;;;;;12.58;38.44;102675.13;4936845;29;20415;-80
2022/03/01 00:08:30;;;;;;;22.70;10.30;;;;;;;12.59;38.58;102681.44;4936955;29;20028;-80
2022/03/01 00:10:55;;;;;;;18.35;10.32;;;;;;;12.58;38.57;102677.06;4936884;29;20456;-83
2022/03/01 00:13:21;;;;;;;19.27;10.32;;;;;;;12.55;38.53;102674.88;4936860;29;20040;-84
2022/03/01 00:15:46;;;;;;;20.80;10.55;;;;;;;12.53;38.79;102680.63;4919737;29;20518;-80
2022/03/01 00:18:12;;;;;;;17.25;10.23;;;;;;;12.52;38.75;102679.00;4936742;29;20489;-81
2022/03/01 00:20:37;;;;;;;22.38;11.95;;;;;;;12.51;38.80;102674.59;4936784;29;20031;-79
2022/03/01 00:23:03;;;;;;;17.85;10.55;;;;;;;12.49;38.64;102677.63;4936703;29;20043;-80
2022/03/01 00:25:29;;;;;;;20.40;11.52;;;;;;;12.49;38.81;102682.28;4919582;29;20038;-82
2022/03/01 00:27:54;;;;;;;18.20;11.27;;;;;;;12.47;38.70;102681.75;4936539;29;20467;-81
2022/03/01 00:30:20;;;;;;;17.83;11.40;;;;;;;12.45;38.74;102689.44;4936478;29;20522;-80
2022/03/01 00:32:46;;;;;;;16.83;11.68;;;;;;;12.46;38.73;102700.09;4936360;29;20427;-81
2022/03/01 00:35:11;;;;;;;21.35;12.20;;;;;;;12.41;38.71;102699.31;4919437;29;20040;-81
2022/03/01 00:37:37;;;;;;;17.60;11.30;;;;;;;12.30;38.77;102698.50;4918590;29;20114;-81
2022/03/01 00:40:04;;;;;;;24.17;13.43;;;;;;;12.26;39.00;102715.78;4936268;29;20058;-80
2022/03/01 00:42:30;;;;;;;18.38;11.45;;;;;;;12.20;39.09;102715.78;4936388;29;20086;-80
2022/03/01 00:44:56;;;;;;;18.00;11.95;;;;;;;12.21;38.94;102709.22;4936276;29;20027;-83
2022/03/01 00:47:22;;;;;;;18.70;11.57;;;;;;;12.19;38.72;102716.91;4919088;29;20059;-80
2022/03/01 00:49:47;;;;;;;19.05;12.25;;;;;;;12.18;38.95;102720.72;4919132;29;20035;-84
2022/03/01 00:52:13;;;;;;;20.20;12.40;;;;;;;12.14;38.91;102730.59;4936017;29;20034;-80
2022/03/01 00:54:39;;;;;;;16.63;12.52;;;;;;;12.15;39.08;102723.19;4936065;29;20038;-80
2022/03/01 00:57:05;;;;;;;22.27;14.98;;;;;;;12.17;38.85;102724.56;4936045;29;20027;-80
2022/03/01 00:59:30;;;;;;;20.73;12.63;;;;;;;12.17;38.93;102730.06;4935948;29;20058;-80
2022/03/01 01:01:56;;;;;;;21.10;12.27;;;;;;;12.17;38.85;102732.78;4919032;29;20439;-82
2022/03/01 01:04:22;;;;;;;22.42;12.48;;;;;;;12.14;38.80;102744.28;4936045;29;20171;-81
2022/03/01 01:06:50;;;;;;;21.63;13.55;;;;;;;12.11;39.17;102738.56;4935779;29;20048;-80
2022/03/01 01:09:16;;;;;;;22.77;13.90;;;;;;;12.09;39.09;102748.94;4935868;29;20457;-83
2022/03/01 01:11:42;;;;;;;18.45;12.30;;;;;;;12.10;39.10;102756.91;4918691;29;20028;-80
2022/03/01 01:14:08;;;;;;;16.55;12.20;;;;;;;12.08;39.06;102761.00;4918638;29;20039;-80
2022/03/01 01:16:34;;;;;;;20.83;11.88;;;;;;;12.10;39.11;102764.31;4935829;29;20040;-85
2022/03/01 01:18:59;;;;;;;23.55;12.95;;;;;;;12.05;39.28;102764.31;4935804;29;20478;-80
2022/03/01 01:22:39;;;;;;;20.08;13.90;;;;;;;11.94;39.39;102763.50;4935762;29;20071;-80
2022/03/01 01:24:11;;;;;;;24.98;11.75;;;;;;;11.93;39.40;102768.13;4935374;29;20024;-81
2022/03/01 01:26:36;;;;;;;20.45;11.65;;;;;;;11.98;39.30;102767.31;4935593;29;20423;-80
2022/03/01 01:29:02;;;;;;;24.10;11.73;;;;;;;12.05;39.38;102773.34;4935560;29;20035;-80
2022/03/01 01:31:28;;;;;;;21.35;11.73;;;;;;;12.07;39.35;102779.38;4918445;29;20487;-80
2022/03/01 01:33:53;;;;;;;26.67;11.77;;;;;;;12.09;39.49;102785.41;4935466;29;20127;-83
2022/03/01 01:36:19;;;;;;;22.08;11.95;;;;;;;12.07;39.51;102786.78;5236647;23;20051;-79
2022/03/01 01:38:44;;;;;;;21.83;11.55;;;;;;;12.08;39.44;102783.75;4937314;29;20031;-78
2022/03/01 01:41:10;;;;;;;19.98;10.88;;;;;;;12.03;39.68;102781.03;4954691;29;20608;-78
2022/03/01 01:43:35;;;;;;;23.17;11.23;;;;;;;12.05;39.63;102778.81;4954677;29;20035;-78
2022/03/01 01:46:01;;;;;;;22.88;11.30;;;;;;;12.10;39.60;102778.84;4954720;29;20039;-78
2022/03/01 01:48:27;;;;;;;19.38;11.25;;;;;;;12.14;39.61;102788.13;4956438;28;20082;-78
2022/03/01 01:50:52;;;;;;;25.30;12.23;;;;;;;12.14;39.52;102790.06;4958655;29;20071;-81
2022/03/01 01:53:19;;;;;;;36.28;16.20;;;;;;;12.15;39.59;102783.47;4958439;29;20039;-78
2022/03/01 01:55:45;;;;;;;33.75;16.83;;;;;;;12.10;39.71;102781.56;4941466;29;20103;-79
2022/03/01 01:58:10;;;;;;;24.45;13.68;;;;;;;11.99;39.71;102788.13;4958608;29;20035;-84
2022/03/01 02:00:36;;;;;;;21.67;11.90;;;;;;;11.96;39.79;102787.88;4958405;29;20066;-80
2022/03/01 02:03:02;;;;;;;29.02;13.85;;;;;;;11.97;39.73;102795.00;4958723;29;20054;-81
2022/03/01 02:05:29;;;;;;;23.48;10.88;;;;;;;12.01;39.55;102794.16;4958383;29;20031;-80
2022/03/01 02:07:55;;;;;;;17.10;10.43;;;;;;;11.98;39.63;102791.97;4958491;29;20035;-83
2022/03/01 02:10:21;;;;;;;20.60;11.50;;;;;;;11.99;39.71;102796.34;4958365;29;20027;-82
2022/03/01 02:12:47;;;;;;;17.08;9.90;;;;;;;12.02;39.85;102789.53;4958104;29;20031;-80
2022/03/01 02:15:14;;;;;;;22.65;10.18;;;;;;;11.98;39.76;102789.22;4958336;29;20110;-83
2022/03/01 02:17:41;;;;;;;17.77;9.90;;;;;;;11.96;39.93;102796.09;4940978;29;20034;-80
2022/03/01 02:20:18;;;;;;;17.38;11.82;;;;;;;11.94;39.88;102790.88;4958069;29;20034;-80
2022/03/01 02:22:45;;;;;;;17.80;9.45;;;;;;;11.97;39.92;102795.81;4958144;29;20484;-84
2022/03/01 02:25:11;;;;;;;21.00;10.35;;;;;;;11.99;39.78;102790.06;4957917;29;20035;-80
2022/03/01 02:27:37;;;;;;;17.52;10.68;;;;;;;11.97;39.99;102787.59;4958037;29;20028;-79
2022/03/01 02:30:06;;;;;;;21.90;11.75;;;;;;;11.99;39.73;102790.88;4958013;29;20393;-79
2022/03/01 02:32:32;;;;;;;18.17;11.75;;;;;;;11.98;39.87;102794.72;4957777;29;20047;-82
2022/03/01 02:35:00;;;;;;;20.00;10.25;;;;;;;11.98;39.84;102793.88;4940595;29;20040;-82
2022/03/01 02:37:25;;;;;;;15.48;9.63;;;;;;;11.92;39.70;102795.78;4948989;29;20047;-79
2022/03/01 02:39:53;;;;;;;16.05;9.25;;;;;;;11.90;39.60;102796.06;4957739;28;20031;-79
2022/03/01 02:42:20;;;;;;;16.17;10.10;;;;;;;11.86;39.65;102797.72;4957754;28;20110;-81
2022/03/01 02:44:48;;;;;;;17.88;9.93;;;;;;;11.83;39.93;102798.25;4957668;28;20034;-80
2022/03/01 02:47:14;;;;;;;19.35;9.48;;;;;;;11.84;39.73;102804.56;4957619;28;20544;-81
2022/03/01 02:49:40;;;;;;;24.90;11.07;;;;;;;11.83;39.85;102806.47;4957554;28;20063;-79
2022/03/01 02:52:06;;;;;;;20.90;11.20;;;;;;;11.80;39.88;102809.75;4957479;28;20031;-82
2022/03/01 02:54:32;;;;;;;12.55;9.32;;;;;;;11.77;39.62;102798.47;4956161;28;20063;-79
2022/03/01 02:57:00;;;;;;;15.48;9.75;;;;;;;11.73;39.76;102806.44;4957585;28;20104;-79
2022/03/01 02:59:30;;;;;;;18.77;10.38;;;;;;;11.64;39.75;102822.56;4956423;28;20482;-79
2022/03/01 03:01:56;;;;;;;21.77;10.25;;;;;;;11.59;39.62;102824.47;4957441;28;20548;-80
2022/03/01 03:04:22;;;;;;;21.92;10.20;;;;;;;11.52;39.64;102832.09;4957437;28;20074;-79
2022/03/01 03:06:48;;;;;;;16.10;10.30;;;;;;;11.23;40.14;102832.53;4957419;28;20062;-80
2022/03/01 03:09:13;;;;;;;19.42;9.73;;;;;;;11.20;39.95;102822.13;4957171;28;20102;-82
2022/03/01 03:11:39;;;;;;;16.65;10.43;;;;;;;11.25;39.76;102827.59;4957054;28;20474;-79
2022/03/01 03:14:05;;;;;;;19.33;10.48;;;;;;;11.35;39.59;102821.38;4957151;28;20034;-80
2022/03/01 03:16:31;;;;;;;19.48;10.70;;;;;;;11.40;39.34;102829.56;4955864;28;20042;-79
2022/03/01 03:18:57;;;;;;;15.50;10.23;;;;;;;11.35;39.71;102826.84;4957332;28;20063;-79
2022/03/01 03:21:22;;;;;;;17.75;10.88;;;;;;;11.31;39.82;102822.97;4956997;28;20027;-79
2022/03/01 03:23:48;;;;;;;15.68;9.52;;;;;;;11.33;39.65;102832.56;4956919;28;20083;-79
2022/03/01 03:26:14;;;;;;;17.38;10.65;;;;;;;11.25;39.60;102841.28;4955596;28;20178;-79
2022/03/01 03:28:39;;;;;;;20.25;10.48;;;;;;;11.23;39.62;102846.19;4955565;28;20035;-81
2022/03/01 03:31:05;;;;;;;17.30;9.57;;;;;;;11.21;39.68;102844.84;4955646;29;20032;-79
2022/03/01 03:33:30;;;;;;;19.45;10.48;;;;;;;11.20;39.58;102840.44;4955424;28;20035;-79
2022/03/01 03:35:57;;;;;;;19.15;10.40;;;;;;;11.18;39.64;102850.81;4956778;29;20035;-80
2022/03/01 03:38:24;;;;;;;17.30;10.40;;;;;;;11.13;39.71;102856.28;4937567;29;20120;-79
2022/03/01 03:40:49;;;;;;;20.50;11.10;;;;;;;11.14;39.31;102849.72;4937519;29;20027;-79
2022/03/01 03:43:15;;;;;;;20.00;9.38;;;;;;;11.11;39.50;102854.63;4920333;29;20031;-79
2022/03/01 03:45:41;;;;;;;21.10;11.85;;;;;;;11.01;39.59;102842.78;4937434;29;20038;-79
2022/03/01 03:48:07;;;;;;;18.10;10.52;;;;;;;11.04;39.38;102850.50;4937421;29;20028;-80
2022/03/01 03:50:34;;;;;;;18.25;10.02;;;;;;;11.03;39.65;102852.41;4920225;29;20453;-79
2022/03/01 03:53:00;;;;;;;14.60;10.38;;;;;;;11.05;39.66;102855.69;4937107;29;20108;-79
2022/03/01 03:55:26;;;;;;;16.60;10.55;;;;;;;10.99;39.63;102853.19;4937364;29;20040;-84
2022/03/01 03:57:52;;;;;;;18.80;10.05;;;;;;;10.97;39.55;102849.91;4920150;29;20389;-80
2022/03/01 04:00:18;;;;;;;15.93;9.95;;;;;;;10.98;39.84;102857.00;4937145;29;20027;-79
2022/03/01 04:02:46;;;;;;;14.48;9.32;;;;;;;10.99;39.75;102858.66;4919956;29;20131;-83
2022/03/01 04:05:15;;;;;;;14.95;9.82;;;;;;;10.98;39.46;102866.03;4937175;29;20091;-81
2022/03/01 04:07:42;;;;;;;16.83;9.85;;;;;;;10.92;39.81;102867.09;4937001;29;20091;-82
2022/03/01 04:10:10;;;;;;;14.27;9.82;;;;;;;10.91;39.61;102867.34;4920049;29;20494;-80
2022/03/01 04:12:36;;;;;;;18.27;9.27;;;;;;;10.90;39.73;102863.81;4936560;29;20136;-83
2022/03/01 04:15:04;;;;;;;15.88;9.38;;;;;;;10.89;39.67;102866.81;4936881;29;20082;-80
2022/03/01 04:17:30;;;;;;;18.92;11.85;;;;;;;10.91;39.75;102875.56;4936763;29;20430;-79
2022/03/01 04:19:55;;;;;;;19.95;10.02;;;;;;;10.90;39.81;102869.28;4936695;29;20102;-79
2022/03/01 04:22:21;;;;;;;15.98;9.95;;;;;;;10.88;39.86;102865.97;4936715;29;20034;-82
2022/03/01 04:24:47;;;;;;;17.95;9.30;;;;;;;10.88;39.85;102863.22;4936641;29;20111;-82
2022/03/01 04:27:12;;;;;;;18.45;9.15;;;;;;;10.88;39.79;102867.88;4919542;29;20035;-79
2022/03/01 04:29:38;;;;;;;18.80;8.43;;;;;;;10.91;40.03;102867.34;4919441;29;20031;-83
2022/03/01 04:32:04;;;;;;;15.55;9.23;;;;;;;10.93;39.82;102871.47;4936443;29;20043;-79
2022/03/01 04:34:29;;;;;;;19.65;9.20;;;;;;;10.90;39.78;102866.53;4934308;29;20152;-78
2022/03/01 04:36:55;;;;;;;21.42;10.80;;;;;;;10.88;40.01;102879.63;4943363;29;20044;-84
2022/03/01 04:39:21;;;;;;;15.55;8.25;;;;;;;10.89;40.14;102881.31;4955546;29;20047;-82
2022/03/01 04:41:46;;;;;;;14.88;7.68;;;;;;;10.89;40.01;102878.56;4955311;29;20497;-83
2022/03/01 04:44:12;;;;;;;13.93;8.02;;;;;;;10.86;40.15;102876.34;4938252;29;20031;-83
2022/03/01 04:46:38;;;;;;;13.30;7.55;;;;;;;10.82;40.32;102883.44;4955709;29;20081;-83
2022/03/01 04:49:03;;;;;;;14.27;7.63;;;;;;;10.83;40.25;102877.72;4955366;29;20046;-84
2022/03/01 04:51:29;;;;;;;23.95;9.05;;;;;;;10.82;40.28;102880.72;4955110;28;20023;-84
2022/03/01 04:53:55;;;;;;;19.88;8.73;;;;;;;10.85;40.23;102877.44;4955209;29;20035;-83
2022/03/01 04:56:21;;;;;;;25.73;8.95;;;;;;;10.84;40.28;102868.41;4955251;29;20035;-83
2022/03/01 04:58:47;;;;;;;17.98;8.43;;;;;;;10.83;40.30;102871.41;4955101;29;20106;-78
2022/03/01 05:01:12;;;;;;;18.75;9.10;;;;;;;10.86;40.21;102876.34;4955073;29;20027;-79
2022/03/01 05:03:38;;;;;;;17.17;8.20;;;;;;;10.80;40.11;102874.66;4955135;29;20031;-83
2022/03/01 05:06:04;;;;;;;17.83;7.72;;;;;;;10.81;40.24;102870.84;4955194;28;20426;-78
2022/03/01 05:08:30;;;;;;;23.00;9.75;;;;;;;10.80;40.28;102870.00;4954913;29;20035;-83
2022/03/01 05:11:02;;;;;;;23.02;9.15;;;;;;;10.73;40.39;102876.78;4937385;29;20067;-78
2022/03/01 05:13:29;;;;;;;12.95;8.18;;;;;;;10.77;40.33;102886.13;4954464;29;20035;-79
2022/03/01 05:15:55;;;;;;;14.38;8.05;;;;;;;10.75;40.19;102874.63;4954253;29;20042;-83
2022/03/01 05:18:21;;;;;;;19.48;8.40;;;;;;;10.60;40.63;102875.34;4954718;29;20035;-79
2022/03/01 05:20:47;;;;;;;16.05;8.18;;;;;;;10.48;40.83;102880.16;4954249;29;20074;-80
2022/03/01 05:23:14;;;;;;;17.60;7.68;;;;;;;10.51;40.72;102877.72;4953762;28;20113;-82
2022/03/01 05:25:39;;;;;;;22.63;8.18;;;;;;;10.51;40.91;102874.19;4954353;29;20573;-78
2022/03/01 05:28:05;;;;;;;12.68;6.97;;;;;;;10.44;40.94;102879.84;4954221;29;20031;-78
2022/03/01 05:30:31;;;;;;;11.18;7.28;;;;;;;10.46;40.78;102885.88;4954745;29;20027;-79
2022/03/01 05:32:57;;;;;;;17.70;8.30;;;;;;;10.46;40.94;102883.16;4954616;29;20039;-79
2022/03/01 05:35:25;;;;;;;14.75;8.05;;;;;;;10.42;41.03;102887.47;4937078;29;20031;-79
2022/03/01 05:37:54;;;;;;;14.02;9.18;;;;;;;10.41;40.95;102879.53;4948369;29;20051;-78
2022/03/01 05:40:31;;;;;;;15.50;8.10;;;;;;;10.31;40.85;102891.22;4954635;28;20525;-84
2022/03/01 05:42:59;;;;;;;15.57;7.70;;;;;;;10.30;40.75;102889.56;4954601;28;20418;-84
2022/03/01 05:45:25;;;;;;;14.57;8.40;;;;;;;10.26;40.82;102889.25;4954539;28;20114;-79
2022/03/01 05:47:52;;;;;;;15.05;8.60;;;;;;;10.26;40.96;102885.69;4954325;28;20035;-78
2022/03/01 05:50:18;;;;;;;15.50;7.38;;;;;;;10.36;40.59;102887.72;4954453;28;20048;-79
2022/03/01 05:52:44;;;;;;;23.42;8.85;;;;;;;10.31;40.81;102882.19;4954500;28;20039;-82
2022/03/01 05:55:10;;;;;;;23.80;8.55;;;;;;;10.26;40.82;102891.97;4963663;28;20381;-81
2022/03/01 05:57:36;;;;;;;17.77;7.85;;;;;;;10.24;41.03;102883.22;4972285;28;20533;-80
2022/03/01 06:00:07;;;;;;;13.82;8.05;;;;;;;10.16;41.38;102875.47;4973391;28;20106;-82
2022/03/01 06:02:33;;;;;;;15.70;9.15;;;;;;;10.15;41.09;102867.53;4973611;28;20022;-79
2022/03/01 06:04:58;;;;;;;20.05;9.02;;;;;;;10.15;41.27;102873.00;4966329;28;20031;-79
2022/03/01 06:07:24;;;;;;;16.08;9.10;;;;;;;10.15;41.09;102870.25;4953065;29;20035;-80
2022/03/01 06:09:49;;;;;;;19.27;9.43;;;;;;;10.00;41.24;102881.84;4954111;28;20024;-79
2022/03/01 06:12:15;;;;;;;19.90;8.57;;;;;;;10.04;41.19;102888.44;4954139;28;20086;-81
2022/03/01 06:14:41;;;;;;;17.02;8.00;;;;;;;10.19;40.94;102887.75;4954221;28;20059;-78
2022/03/01 06:17:06;;;;;;;19.58;7.85;;;;;;;10.05;41.40;102900.19;4954168;28;20537;-79
2022/03/01 06:19:33;;;;;;;16.15;8.82;;;;;;;10.16;40.83;102883.66;4953906;28;20387;-82
2022/03/01 06:21:59;;;;;;;16.33;8.45;;;;;;;10.17;40.80;102887.22;4954005;28;20592;-83
2022/03/01 06:24:25;;;;;;;15.93;7.57;;;;;;;10.06;40.96;102897.22;4954008;28;20086;-78
2022/03/01 06:26:50;;;;;;;17.75;9.10;;;;;;;10.02;41.04;102898.78;4954286;28;20020;-84
2022/03/01 06:29:16;;;;;;;17.52;9.18;;;;;;;10.06;40.86;102899.13;4954044;28;20098;-79
2022/03/01 06:31:42;;;;;;;19.38;8.32;;;;;;;10.07;41.16;102903.50;4953936;28;20025;-80
2022/03/01 06:34:07;;;;;;;17.00;9.02;;;;;;;10.16;41.10;102910.97;4954629;28;20070;-80
2022/03/01 06:36:33;;;;;;;23.88;9.55;;;;;;;10.15;41.21;102898.41;4957401;28;20082;-79
2022/03/01 06:38:59;;;;;;;22.47;8.97;;;;;;;10.17;41.13;102895.41;4957718;29;20082;-79
2022/03/01 06:41:25;;;;;;;18.37;8.90;;;;;;;10.13;41.19;102897.84;4940267;29;20034;-79
2022/03/01 06:43:50;;;;;;;15.60;8.02;;;;;;;10.15;41.35;102908.50;4957392;29;20047;-79
2022/03/01 06:46:16;;;;;;;22.65;10.05;;;;;;;10.05;41.35;102908.38;4957373;29;20031;-79
2022/03/01 06:48:42;;;;;;;22.50;9.65;;;;;;;10.02;41.41;102912.44;4957438;29;20114;-82
2022/03/01 06:51:08;;;;;;;15.17;8.60;;;;;;;10.01;41.44;102916.28;4957412;29;20019;-82
2022/03/01 06:53:36;;;;;;;17.20;8.13;;;;;;;10.03;41.47;102911.38;4957168;29;20035;-79
2022/03/01 06:56:02;;;;;;;18.60;9.60;;;;;;;10.09;41.57;102918.53;4954770;28;20059;-86
2022/03/01 06:58:28;;;;;;;17.85;9.10;;;;;;;10.13;41.29;102922.44;4940033;29;20031;-85
2022/03/01 07:00:53;;;;;;;18.25;8.85;;;;;;;10.06;41.43;102929.16;4940822;29;20418;-86
2022/03/01 07:03:19;;;;;;;18.63;8.55;;;;;;;10.06;41.31;102927.25;4940793;29;20122;-86
2022/03/01 07:05:44;;;;;;;22.23;9.60;;;;;;;10.05;41.44;102935.69;4940689;29;20028;-85
2022/03/01 07:08:12;;;;;;;15.52;8.73;;;;;;;9.96;41.63;102930.69;4940562;29;20474;-86
2022/03/01 07:10:40;;;;;;;17.23;8.00;;;;;;;9.89;41.84;102940.97;4940497;29;20030;-86
2022/03/01 07:13:07;;;;;;;13.33;8.10;;;;;;;9.85;41.55;102939.84;4940378;29;20045;-86
2022/03/01 07:15:33;;;;;;;13.38;7.85;;;;;;;9.85;41.40;102941.75;4940305;29;20449;-86
2022/03/01 07:18:00;;;;;;;21.33;8.27;;;;;;;9.79;41.50;102940.03;4937892;28;20551;-85
2022/03/01 07:20:26;;;;;;;17.75;9.98;;;;;;;9.72;41.32;102945.69;4939717;29;20030;-84
2022/03/01 07:22:52;;;;;;;23.83;8.73;;;;;;;9.65;41.63;102945.03;4940455;29;20031;-87
2022/03/01 07:25:17;;;;;;;16.73;8.98;;;;;;;9.69;41.69;102943.47;4940693;29;20081;-85
2022/03/01 07:27:51;;;;;;;20.60;10.85;;;;;;;9.73;41.58;102936.41;4940168;29;20253;-85
2022/03/01 07:30:21;;;;;;;19.50;8.85;;;;;;;9.76;41.59;102940.56;4940532;29;20032;-86
2022/03/01 07:32:48;;;;;;;14.35;7.90;;;;;;;9.72;41.39;102948.41;4940451;29;20023;-88
2022/03/01 07:35:15;;;;;;;15.85;8.15;;;;;;;9.66;41.63;102942.06;4940848;29;20151;-87
2022/03/01 07:37:40;;;;;;;17.17;8.25;;;;;;;9.62;41.43;102919.09;4957272;29;20429;-85
2022/03/01 07:40:11;;;;;;;15.45;8.35;;;;;;;9.50;41.91;102928.47;4940207;29;20027;-84
2022/03/01 07:42:37;;;;;;;15.43;7.73;;;;;;;9.59;41.71;102925.03;4940010;29;20042;-84
2022/03/01 07:45:03;;;;;;;19.30;7.70;;;;;;;9.60;41.53;102931.34;4939770;28;20378;-87
2022/03/01 07:47:29;;;;;;;22.15;9.32;;;;;;;9.55;41.59;102932.09;4955494;29;20087;-86
2022/03/01 07:49:55;;;;;;;15.60;8.52;;;;;;;9.53;41.76;102939.72;4939807;29;20434;-84
2022/03/01 07:52:24;;;;;;;18.77;8.30;;;;;;;9.56;41.79;102941.09;4956839;29;20386;-85
2022/03/01 07:54:49;;;;;;;19.70;10.07;;;;;;;9.64;41.62;102935.22;4940049;29;20055;-86
2022/03/01 07:57:16;;;;;;;15.38;8.40;;;;;;;9.66;41.67;102938.50;4940331;29;20078;-87
2022/03/01 07:59:41;;;;;;;16.73;8.67;;;;;;;9.69;41.85;102938.84;4940087;29;20019;-87
2022/03/01 08:02:07;;;;;;;18.60;9.52;;;;;;;9.80;41.81;102945.25;4940043;29;20027;-84
2022/03/01 08:04:33;;;;;;;15.07;8.55;;;;;;;9.78;41.51;102955.59;4938986;28;20027;-85
2022/03/01 08:06:58;;;;;;;12.38;8.50;;;;;;;9.78;41.72;102936.47;4942983;28;20046;-88
2022/03/01 08:09:24;;;;;;;14.43;8.82;;;;;;;9.82;41.84;102942.25;4924624;28;21323;-86
2022/03/01 08:11:49;;;;;;;15.80;7.85;;;;;;;9.73;42.14;102939.13;4923730;28;20027;-84
2022/03/01 08:14:15;;;;;;;13.10;8.63;;;;;;;9.87;42.08;102940.41;4923568;28;20406;-85
2022/03/01 08:16:41;;;;;;;15.90;9.00;;;;;;;9.81;42.32;102944.16;4924590;28;20035;-83
2022/03/01 08:19:07;;;;;;;19.45;8.52;;;;;;;10.01;42.15;102938.94;4924318;28;20167;-83
2022/03/01 08:21:32;;;;;;;17.93;8.20;;;;;;;10.06;42.01;102938.19;4942857;28;20038;-87
2022/03/01 08:23:58;;;;;;;14.43;8.23;;;;;;;10.06;42.25;102948.28;4925290;28;20050;-86
2022/03/01 08:26:24;;;;;;;17.65;9.20;;;;;;;10.01;42.51;102952.59;4924909;28;20050;-86
2022/03/01 08:28:50;;;;;;;12.68;8.10;;;;;;;10.17;42.35;102950.88;4925107;28;20034;-86
2022/03/01 08:31:16;;;;;;;15.27;8.23;;;;;;;10.32;42.32;102952.16;4924680;28;20031;-86
2022/03/01 08:33:42;;;;;;;15.97;8.37;;;;;;;10.35;42.27;102952.44;4923664;28;20050;-85
2022/03/01 08:36:09;;;;;;;19.67;8.35;;;;;;;10.54;41.87;102942.81;4931387;29;20023;-89
2022/03/01 08:38:36;;;;;;;19.20;7.85;;;;;;;10.62;42.50;102946.16;4939461;29;20028;-85
2022/03/01 08:41:02;;;;;;;16.83;8.25;;;;;;;10.66;42.42;102950.03;4938831;29;20023;-87
2022/03/01 08:43:28;;;;;;;19.33;8.57;;;;;;;10.79;42.10;102957.78;4939093;29;20457;-89
2022/03/01 08:45:54;;;;;;;16.02;7.88;;;;;;;10.82;42.42;102957.28;4939319;29;20035;-86
2022/03/01 08:48:19;;;;;;;14.48;7.47;;;;;;;10.90;42.16;102948.59;4939330;29;20034;-90
2022/03/01 08:50:45;;;;;;;15.60;8.88;;;;;;;11.02;42.28;102951.94;4939292;29;20035;-89
2022/03/01 08:53:11;;;;;;;16.60;7.88;;;;;;;11.08;42.50;102948.16;4938568;29;20039;-84
2022/03/01 08:55:38;;;;;;;13.82;7.95;;;;;;;11.31;41.95;102954.34;4938242;29;20024;-89
2022/03/01 08:58:03;;;;;;;11.98;7.50;;;;;;;11.39;42.13;102956.59;4938810;29;20548;-90
2022/03/01 09:00:29;;;;;;;19.63;8.45;;;;;;;11.52;42.06;102956.13;4939242;29;20035;-86
2022/03/01 09:02:55;;;;;;;16.42;7.95;;;;;;;11.54;42.25;102956.66;4939573;29;20034;-91
2022/03/01 09:05:21;;;;;;;17.42;8.38;;;;;;;11.69;42.12;102961.41;4939478;29;20050;-89
2022/03/01 09:07:47;;;;;;;14.60;8.48;;;;;;;11.78;42.09;102965.28;4938566;29;20027;-86
2022/03/01 09:10:12;;;;;;;21.08;7.63;;;;;;;11.83;42.24;102967.25;4938016;29;20082;-84
2022/03/01 09:12:38;;;;;;;17.77;8.13;;;;;;;11.97;42.13;102973.91;4955086;29;20054;-90
2022/03/01 09:15:04;;;;;;;19.73;7.53;;;;;;;12.12;41.97;102973.13;4938947;29;20039;-89
2022/03/01 09:17:30;;;;;;;15.63;7.47;;;;;;;12.22;41.94;102975.88;4938959;29;20565;-89
2022/03/01 09:19:56;;;;;;;23.23;8.55;;;;;;;12.40;41.82;102971.84;4939199;29;20035;-88
2022/03/01 09:22:21;;;;;;;14.20;7.75;;;;;;;12.44;42.01;102976.50;4956255;29;20517;-88
2022/03/01 09:24:47;;;;;;;13.55;7.38;;;;;;;12.58;42.02;102981.47;4936661;29;20393;-84
2022/03/01 09:27:12;;;;;;;18.10;7.40;;;;;;;12.72;41.63;102979.84;4938553;29;20023;-89
2022/03/01 09:29:38;;;;;;;19.98;7.88;;;;;;;12.87;41.72;102973.53;4939042;29;20648;-89
2022/03/01 09:32:04;;;;;;;15.80;8.52;;;;;;;12.88;41.78;102977.91;4939003;29;20067;-90
2022/03/01 09:34:30;;;;;;;18.95;8.90;;;;;;;12.89;42.16;102976.81;4939045;29;20032;-89
2022/03/01 09:36:56;;;;;;;15.60;9.07;;;;;;;13.02;42.18;102982.59;4943613;29;20374;-90
2022/03/01 09:39:22;;;;;;;16.38;5.88;;;;;;;13.15;41.71;102989.44;4954990;29;20054;-84
2022/03/01 09:41:48;;;;;;;18.15;8.10;;;;;;;13.27;41.80;102987.25;4954057;28;20560;-89
2022/03/01 09:44:16;;;;;;;17.48;7.60;;;;;;;13.27;41.79;102987.25;4954372;29;20139;-88
2022/03/01 09:46:42;;;;;;;14.63;6.80;;;;;;;13.41;42.12;102990.25;4954334;29;20027;-91
2022/03/01 09:49:08;;;;;;;16.77;7.57;;;;;;;13.56;41.98;102983.91;4956459;29;20039;-90
2022/03/01 09:51:37;;;;;;;17.38;7.25;;;;;;;13.66;41.70;102988.53;4955636;29;20035;-85
2022/03/01 09:54:02;;;;;;;16.15;6.28;;;;;;;13.81;41.63;102994.81;4953835;29;20496;-90
2022/03/01 09:56:28;;;;;;;21.60;14.85;;;;;;;13.92;41.52;102990.13;4954095;29;20031;-85
2022/03/01 09:58:55;;;;;;;15.27;6.63;;;;;;;13.97;41.59;102984.56;4954980;28;20544;-90
2022/03/01 10:01:22;;;;;;;18.20;7.18;;;;;;;14.22;41.54;102985.59;4954522;29;20442;-90
2022/03/01 10:03:48;;;;;;;16.25;5.43;;;;;;;14.32;41.56;102994.59;4954719;29;20389;-92
2022/03/01 10:06:15;;;;;;;12.35;4.80;;;;;;;14.38;41.51;103001.72;4956002;28;20035;-90
2022/03/01 10:08:41;;;;;;;10.68;3.95;;;;;;;14.52;41.54;103001.13;4954745;28;20414;-88
2022/03/01 10:11:08;;;;;;;16.45;4.28;;;;;;;14.57;41.14;102996.38;4958221;29;20035;-90
2022/03/01 10:13:38;;;;;;;16.15;5.45;;;;;;;14.67;41.08;103007.34;4958910;28;20397;-88
2022/03/01 10:16:09;;;;;;;18.17;5.10;;;;;;;14.80;40.90;103011.34;4958839;29;20031;-88
2022/03/01 10:18:41;;;;;;;20.48;4.30;;;;;;;14.88;40.65;103008.00;4958378;29;20381;-91
2022/03/01 10:21:09;;;;;;;15.70;4.35;;;;;;;14.99;40.61;102992.22;4959420;29;20023;-92
2022/03/01 10:23:41;;;;;;;11.80;5.15;;;;;;;15.16;40.13;102991.81;4957917;28;20112;-86
2022/03/01 10:26:27;;;;;;;9.65;3.38;;;;;;;14.97;40.10;103003.53;4959011;28;20024;-91
2022/03/01 10:28:55;;;;;;;8.57;2.70;;;;;;;15.13;39.72;103000.66;4958474;29;20047;-90
2022/03/01 10:31:24;;;;;;;15.20;3.83;;;;;;;15.08;39.75;103000.69;4957531;29;20039;-91
2022/03/01 10:34:07;;;;;;;18.88;4.82;;;;;;;15.10;39.68;102990.19;4958112;29;20036;-91
2022/03/01 10:36:42;;;;;;;16.33;4.40;;;;;;;15.26;39.61;102989.78;4958039;29;20417;-91
2022/03/01 10:39:10;;;;;;;11.75;3.58;;;;;;;15.13;39.66;102986.88;4957837;29;20033;-91
2022/03/01 10:41:38;;;;;;;12.35;3.60;;;;;;;15.32;39.10;102985.03;4957931;29;20027;-91
2022/03/01 10:44:05;;;;;;;17.77;4.90;;;;;;;15.33;39.23;102977.59;4956460;28;20039;-86
2022/03/01 10:46:39;;;;;;;13.93;3.47;;;;;;;15.38;39.02;102980.31;4957750;29;20035;-91
2022/03/01 10:49:10;;;;;;;10.73;3.65;;;;;;;15.34;39.09;102979.22;4953235;28;20039;-86
2022/03/01 10:52:03;;;;;;;16.90;4.75;;;;;;;15.48;39.21;102971.91;4957510;29;20027;-90
2022/03/01 10:54:34;;;;;;;14.18;3.47;;;;;;;15.64;39.32;102967.09;4954844;28;20031;-90
2022/03/01 10:57:05;;;;;;;22.55;4.35;;;;;;;15.63;39.34;102966.28;4956343;28;20118;-86
2022/03/01 10:59:33;;;;;;;16.85;4.28;;;;;;;15.84;39.30;102958.59;4956848;28;20034;-85
2022/03/01 11:02:00;;;;;;;7.72;3.30;;;;;;;15.95;39.23;102957.34;4957063;29;20033;-92
2022/03/01 11:04:26;;;;;;;9.38;3.67;;;;;;;15.93;39.07;102958.75;4958040;29;20114;-92
2022/03/01 11:07:04;;;;;;;10.43;3.38;;;;;;;16.01;39.46;102963.59;4957369;29;20061;-92
2022/03/01 11:09:32;;;;;;;19.10;4.22;;;;;;;16.16;38.78;102965.31;4958448;28;20090;-91
2022/03/01 11:11:58;;;;;;;16.75;3.75;;;;;;;16.12;39.40;102958.78;4957393;29;20110;-92